createdAt,value
2022-08-02T00:00:19.247Z,14.40
2022-08-02T00:02:47.186Z,14.40
2022-08-02T00:05:14.437Z,14.40
2022-08-02T00:07:41.663Z,14.40
2022-08-02T00:10:11.093Z,14.40
2022-08-02T00:12:39.284Z,14.40
2022-08-02T00:15:08.045Z,14.40
2022-08-02T00:17:35.189Z,14.40
2022-08-02T00:20:02.376Z,14.40
2022-08-02T00:22:29.466Z,14.50
2022-08-02T00:24:56.536Z,14.40
2022-08-02T00:27:23.703Z,14.50
2022-08-02T00:29:53.335Z,14.50
2022-08-02T00:32:23.130Z,14.40
2022-08-02T00:34:51.291Z,14.40
2022-08-02T00:37:18.853Z,14.40
2022-08-02T00:39:45.887Z,14.40
2022-08-02T00:42:15.537Z,14.40
2022-08-02T00:44:43.451Z,14.50
2022-08-02T00:47:10.804Z,14.50
2022-08-02T00:49:40.895Z,14.50
2022-08-02T00:52:08.325Z,14.50
2022-08-02T00:54:35.962Z,14.50
2022-08-02T00:57:03.000Z,14.50
2022-08-02T00:59:30.094Z,14.50
2022-08-02T01:01:58.448Z,14.60
2022-08-02T01:04:30.466Z,14.60
2022-08-02T01:07:13.107Z,14.60
2022-08-02T01:09:45.028Z,14.60
2022-08-02T01:12:13.469Z,14.60
2022-08-02T01:14:43.545Z,14.60
2022-08-02T01:17:29.079Z,14.60
2022-08-02T01:19:56.125Z,14.60
2022-08-02T01:23:01.022Z,14.60
2022-08-02T01:25:51.053Z,14.60
2022-08-02T01:28:27.140Z,14.60
2022-08-02T01:31:04.708Z,14.60
2022-08-02T01:33:41.016Z,14.60
2022-08-02T01:36:13.056Z,14.60
2022-08-02T01:38:47.556Z,14.60
2022-08-02T01:41:19.421Z,14.60
2022-08-02T01:43:49.734Z,14.70
2022-08-02T01:46:19.080Z,14.60
2022-08-02T01:48:48.026Z,14.60
2022-08-02T01:51:18.814Z,14.70
2022-08-02T01:53:50.094Z,14.70
2022-08-02T01:56:19.669Z,14.60
2022-08-02T01:58:49.009Z,14.70
2022-08-02T02:01:18.918Z,14.70
2022-08-02T02:03:48.858Z,14.70
2022-08-02T02:06:16.934Z,14.70
2022-08-02T02:08:44.829Z,14.80
2022-08-02T02:12:11.662Z,14.80
2022-08-02T02:14:02.192Z,14.80
2022-08-02T02:16:32.176Z,14.80
2022-08-02T02:19:02.565Z,14.80
2022-08-02T02:21:31.401Z,14.80
2022-08-02T02:23:59.776Z,14.80
2022-08-02T02:26:31.420Z,14.80
2022-08-02T02:29:05.233Z,14.70
2022-08-02T02:31:39.101Z,14.70
2022-08-02T02:34:13.919Z,14.70
2022-08-02T02:36:46.253Z,14.70
2022-08-02T02:39:15.506Z,14.70
2022-08-02T02:41:44.526Z,14.70
2022-08-02T02:44:16.465Z,14.70
2022-08-02T02:46:44.312Z,14.70
2022-08-02T02:49:12.563Z,14.70
2022-08-02T02:51:44.377Z,14.70
2022-08-02T02:54:32.009Z,14.60
2022-08-02T02:57:01.573Z,14.60
2022-08-02T02:59:29.475Z,14.60
2022-08-02T03:01:58.249Z,14.60
2022-08-02T03:04:56.012Z,14.70
2022-08-02T03:07:24.568Z,14.70
2022-08-02T03:09:54.558Z,14.70
2022-08-02T03:12:30.233Z,14.70
2022-08-02T03:15:06.427Z,14.70
2022-08-02T03:17:44.698Z,14.60
2022-08-02T03:20:14.795Z,14.70
2022-08-02T03:22:42.802Z,14.70
2022-08-02T03:25:11.228Z,14.70
2022-08-02T03:27:39.338Z,14.80
2022-08-02T03:30:09.170Z,14.80
2022-08-02T03:32:38.142Z,14.90
2022-08-02T03:35:08.016Z,14.90
2022-08-02T03:37:37.130Z,14.90
2022-08-02T03:40:08.389Z,14.90
2022-08-02T03:42:35.708Z,14.90
2022-08-02T03:45:09.286Z,15.00
2022-08-02T03:47:39.572Z,14.90
2022-08-02T03:50:08.770Z,15.00
2022-08-02T03:52:37.828Z,15.00
2022-08-02T03:55:05.637Z,15.00
2022-08-02T03:57:32.774Z,15.00
2022-08-02T03:59:59.878Z,15.00
2022-08-02T04:02:26.938Z,15.10
2022-08-02T04:04:53.939Z,15.10
2022-08-02T04:08:02.466Z,15.10
2022-08-02T04:10:08.461Z,15.10
2022-08-02T04:12:35.841Z,15.20
2022-08-02T04:15:07.900Z,15.20
2022-08-02T04:17:41.937Z,15.20
2022-08-02T04:20:20.338Z,15.20
2022-08-02T04:22:58.697Z,15.20
2022-08-02T04:25:35.273Z,15.30
2022-08-02T04:28:17.238Z,15.30
2022-08-02T04:30:47.879Z,15.30
2022-08-02T04:33:15.800Z,15.30
2022-08-02T04:35:43.780Z,15.30
2022-08-02T04:38:12.567Z,15.30
2022-08-02T04:40:39.843Z,15.30
2022-08-02T04:43:07.500Z,15.40
2022-08-02T04:45:35.549Z,15.40
2022-08-02T04:48:05.296Z,15.40
2022-08-02T04:50:33.130Z,15.40
2022-08-02T04:53:00.349Z,15.40
2022-08-02T04:55:29.286Z,15.40
2022-08-02T04:58:03.739Z,15.40
2022-08-02T05:00:34.408Z,15.50
2022-08-02T05:03:02.086Z,15.50
2022-08-02T05:05:29.262Z,15.50
2022-08-02T05:07:56.478Z,15.50
2022-08-02T05:10:23.787Z,15.50
2022-08-02T05:12:51.080Z,15.60
2022-08-02T05:15:18.790Z,15.50
2022-08-02T05:17:48.576Z,15.60
2022-08-02T05:20:19.971Z,15.60
2022-08-02T05:22:47.807Z,15.70
2022-08-02T05:25:16.093Z,15.70
2022-08-02T05:27:43.272Z,15.70
2022-08-02T05:30:13.552Z,15.70
2022-08-02T05:32:48.554Z,15.80
2022-08-02T05:35:20.081Z,15.80
2022-08-02T05:37:48.240Z,15.90
2022-08-02T05:40:15.662Z,15.90
2022-08-02T05:42:43.285Z,16.00
2022-08-02T05:45:11.132Z,16.00
2022-08-02T05:47:39.109Z,16.00
2022-08-02T05:50:10.460Z,16.10
2022-08-02T05:52:51.643Z,16.10
2022-08-02T05:55:33.624Z,16.10
2022-08-02T05:58:08.249Z,16.20
2022-08-02T06:00:36.521Z,16.20
2022-08-02T06:03:05.565Z,16.30
2022-08-02T06:05:35.860Z,16.40
2022-08-02T06:08:09.931Z,16.40
2022-08-02T06:10:38.814Z,16.50
2022-08-02T06:13:10.059Z,16.50
2022-08-02T06:15:53.394Z,16.60
2022-08-02T06:18:27.769Z,16.70
2022-08-02T06:22:35.201Z,16.70
2022-08-02T06:23:57.540Z,16.70
2022-08-02T06:26:27.565Z,16.90
2022-08-02T06:29:14.846Z,16.90
2022-08-02T06:31:45.309Z,17.00
2022-08-02T06:34:12.740Z,17.00
2022-08-02T06:37:06.621Z,17.00
2022-08-02T06:39:48.903Z,17.10
2022-08-02T06:42:31.277Z,17.10
2022-08-02T06:45:02.629Z,17.20
2022-08-02T06:47:29.708Z,17.20
2022-08-02T06:49:58.458Z,17.20
2022-08-02T06:52:29.259Z,17.30
2022-08-02T06:55:02.292Z,17.30
2022-08-02T06:57:30.258Z,17.30
2022-08-02T06:59:58.453Z,17.30
2022-08-02T07:02:27.071Z,17.40
2022-08-02T07:04:55.065Z,17.40
2022-08-02T07:07:22.243Z,17.50
2022-08-02T07:09:57.281Z,17.50
2022-08-02T07:12:33.404Z,17.50
2022-08-02T07:15:02.532Z,17.60
2022-08-02T07:17:30.051Z,17.60
2022-08-02T07:19:58.760Z,17.60
2022-08-02T07:22:27.451Z,17.60
2022-08-02T07:24:56.778Z,17.60
2022-08-02T07:27:24.986Z,17.60
2022-08-02T07:29:52.553Z,17.70
2022-08-02T07:32:22.236Z,17.70
2022-08-02T07:34:50.858Z,17.70
2022-08-02T07:37:53.527Z,17.70
2022-08-02T07:40:15.113Z,17.70
2022-08-02T07:42:47.547Z,17.70
2022-08-02T07:45:14.925Z,17.70
2022-08-02T07:47:44.093Z,17.70
2022-08-02T07:50:13.032Z,17.70
2022-08-02T07:52:43.899Z,17.70
2022-08-02T07:55:12.839Z,17.70
2022-08-02T07:57:45.823Z,17.70
2022-08-02T08:00:16.234Z,18.00
2022-08-02T08:02:44.302Z,18.40
2022-08-02T08:05:12.181Z,18.50
2022-08-02T08:07:39.565Z,18.40
2022-08-02T08:10:07.959Z,18.40
2022-08-02T08:12:35.310Z,18.40
2022-08-02T08:15:03.108Z,18.50
2022-08-02T08:17:30.341Z,18.60
2022-08-02T08:19:58.223Z,18.70
2022-08-02T08:22:25.449Z,18.70
2022-08-02T08:24:52.545Z,18.80
2022-08-02T08:27:22.573Z,18.80
2022-08-02T08:29:50.442Z,18.80
2022-08-02T08:32:18.821Z,18.90
2022-08-02T08:34:47.176Z,19.00
2022-08-02T08:37:16.763Z,19.00
2022-08-02T08:39:57.888Z,19.30
2022-08-02T08:42:31.379Z,19.70
2022-08-02T08:44:59.602Z,20.20
2022-08-02T08:47:34.692Z,20.60
2022-08-02T08:50:06.481Z,20.90
2022-08-02T08:52:46.381Z,21.10
2022-08-02T08:55:14.194Z,21.30
2022-08-02T08:57:42.794Z,21.40
2022-08-02T09:00:13.063Z,21.50
2022-08-02T09:02:42.827Z,21.50
2022-08-02T09:05:16.060Z,21.50
2022-08-02T09:07:47.132Z,21.60
2022-08-02T09:10:46.964Z,21.70
2022-08-02T09:13:37.701Z,21.70
2022-08-02T09:16:12.674Z,21.80
2022-08-02T09:18:47.210Z,22.00
2022-08-02T09:21:17.162Z,22.20
2022-08-02T09:23:50.041Z,22.30
2022-08-02T09:26:19.731Z,22.60
2022-08-02T09:28:50.267Z,22.60
2022-08-02T09:31:20.000Z,22.60
2022-08-02T09:33:53.051Z,22.50
2022-08-02T09:36:21.015Z,22.50
2022-08-02T09:38:59.469Z,22.60
2022-08-02T09:41:28.873Z,22.80
2022-08-02T09:44:04.726Z,22.90
2022-08-02T09:46:44.563Z,23.00
2022-08-02T09:49:14.619Z,23.20
2022-08-02T09:51:47.685Z,23.30
2022-08-02T09:54:29.695Z,23.40
2022-08-02T09:57:01.720Z,23.50
2022-08-02T09:59:30.433Z,23.70
2022-08-02T10:02:01.638Z,23.90
2022-08-02T10:04:53.444Z,24.00
2022-08-02T10:07:25.246Z,24.20
2022-08-02T10:09:52.931Z,24.40
2022-08-02T10:12:27.098Z,24.40
2022-08-02T10:14:58.169Z,24.20
2022-08-02T10:17:25.728Z,24.10
2022-08-02T10:20:03.023Z,24.00
2022-08-02T10:22:34.507Z,24.20
2022-08-02T10:25:04.618Z,24.20
2022-08-02T10:27:49.298Z,24.30
2022-08-02T10:30:21.000Z,24.40
2022-08-02T10:32:51.938Z,24.40
2022-08-02T10:35:25.546Z,24.50
2022-08-02T10:38:01.762Z,24.60
2022-08-02T10:40:48.002Z,24.60
2022-08-02T10:43:36.156Z,24.80
2022-08-02T10:46:22.887Z,25.00
2022-08-02T10:49:37.356Z,25.20
2022-08-02T10:52:04.698Z,25.40
2022-08-02T10:54:32.180Z,25.70
2022-08-02T10:57:01.680Z,25.90
2022-08-02T10:59:30.997Z,25.60
2022-08-02T11:02:04.441Z,25.10
2022-08-02T11:04:55.739Z,24.90
2022-08-02T11:07:52.272Z,24.80
2022-08-02T11:10:25.488Z,24.80
2022-08-02T11:13:15.207Z,24.70
2022-08-02T11:16:10.590Z,24.70
2022-08-02T11:18:50.534Z,24.70
2022-08-02T11:21:26.323Z,24.70
2022-08-02T11:23:54.080Z,24.60
2022-08-02T11:26:33.404Z,24.50
2022-08-02T11:29:05.486Z,24.40
2022-08-02T11:31:40.990Z,24.30
2022-08-02T11:34:09.934Z,24.20
2022-08-02T11:36:48.488Z,24.00
2022-08-02T11:39:18.500Z,23.70
2022-08-02T11:41:59.533Z,23.50
2022-08-02T11:44:29.590Z,23.20
2022-08-02T11:46:58.984Z,23.00
2022-08-02T11:49:26.486Z,23.00
2022-08-02T11:51:54.763Z,23.00
2022-08-02T11:54:30.509Z,23.10
2022-08-02T11:57:18.928Z,23.10
2022-08-02T11:59:52.323Z,23.20
2022-08-02T12:02:21.757Z,23.20
2022-08-02T12:04:59.848Z,23.50
2022-08-02T12:07:36.550Z,23.90
2022-08-02T12:10:17.465Z,24.20
2022-08-02T12:12:56.460Z,24.20
2022-08-02T12:15:42.192Z,23.90
2022-08-02T12:18:29.772Z,24.10
2022-08-02T12:20:59.789Z,24.30
2022-08-02T12:23:28.887Z,24.60
2022-08-02T12:26:15.947Z,24.90
2022-08-02T12:28:44.052Z,25.00
2022-08-02T12:31:15.346Z,25.10
2022-08-02T12:33:53.308Z,25.30
2022-08-02T12:36:28.034Z,25.30
2022-08-02T12:39:00.763Z,25.60
2022-08-02T12:41:31.764Z,25.80
2022-08-02T12:44:00.064Z,26.00
2022-08-02T12:46:27.329Z,26.20
2022-08-02T12:49:16.744Z,26.00
2022-08-02T12:51:56.611Z,25.60
2022-08-02T12:54:38.506Z,25.20
2022-08-02T12:57:18.854Z,25.10
2022-08-02T12:59:53.830Z,25.30
2022-08-02T13:02:21.809Z,25.30
2022-08-02T13:04:50.705Z,25.30
2022-08-02T13:07:19.363Z,25.60
2022-08-02T13:09:48.477Z,25.70
2022-08-02T13:12:16.637Z,25.70
2022-08-02T13:14:44.140Z,25.80
2022-08-02T13:17:12.401Z,25.90
2022-08-02T13:19:41.020Z,25.60
2022-08-02T13:22:08.463Z,25.70
2022-08-02T13:24:55.383Z,25.80
2022-08-02T13:27:25.024Z,26.00
2022-08-02T13:29:56.809Z,26.10
2022-08-02T13:32:25.082Z,26.10
2022-08-02T13:34:52.587Z,25.90
2022-08-02T13:37:20.128Z,25.40
2022-08-02T13:40:05.520Z,25.30
2022-08-02T13:42:34.755Z,25.60
2022-08-02T13:45:12.721Z,25.90
2022-08-02T13:48:04.403Z,26.00
2022-08-02T13:50:30.400Z,26.20
2022-08-02T13:52:58.855Z,26.30
2022-08-02T13:55:26.294Z,26.50
2022-08-02T13:57:55.863Z,26.70
2022-08-02T14:00:34.855Z,26.80
2022-08-02T14:03:03.833Z,26.90
2022-08-02T14:05:39.589Z,26.40
2022-08-02T14:08:16.899Z,26.00
2022-08-02T14:10:45.614Z,25.80
2022-08-02T14:13:14.062Z,25.40
2022-08-02T14:15:41.324Z,25.20
2022-08-02T14:18:08.493Z,25.60
2022-08-02T14:20:35.585Z,25.60
2022-08-02T14:23:02.658Z,25.80
2022-08-02T14:25:29.769Z,25.40
2022-08-02T14:27:56.851Z,25.20
2022-08-02T14:30:24.192Z,25.10
2022-08-02T14:32:51.328Z,25.00
2022-08-02T14:35:18.591Z,25.10
2022-08-02T14:37:45.823Z,25.60
2022-08-02T14:40:28.236Z,26.10
2022-08-02T14:43:03.194Z,26.30
2022-08-02T14:45:40.408Z,26.50
2022-08-02T14:48:09.761Z,26.90
2022-08-02T14:50:37.113Z,27.30
2022-08-02T14:53:04.278Z,27.40
2022-08-02T14:55:31.341Z,26.90
2022-08-02T14:57:58.503Z,26.40
2022-08-02T15:00:25.628Z,26.00
2022-08-02T15:02:55.980Z,25.90
2022-08-02T15:05:23.136Z,25.80
2022-08-02T15:07:50.228Z,25.70
2022-08-02T15:10:18.919Z,25.60
2022-08-02T15:12:46.177Z,25.60
2022-08-02T15:15:13.354Z,25.50
2022-08-02T15:17:41.147Z,25.50
2022-08-02T15:20:24.662Z,25.60
2022-08-02T15:22:53.355Z,25.70
2022-08-02T15:25:24.506Z,25.40
2022-08-02T15:27:51.610Z,25.20
2022-08-02T15:30:19.464Z,25.10
2022-08-02T15:32:53.045Z,24.90
2022-08-02T15:35:21.463Z,24.80
2022-08-02T15:37:48.535Z,24.50
2022-08-02T15:40:15.600Z,24.50
2022-08-02T15:42:43.880Z,24.30
2022-08-02T15:45:14.716Z,24.20
2022-08-02T15:47:50.271Z,24.20
2022-08-02T15:50:18.649Z,24.20
2022-08-02T15:52:45.819Z,24.10
2022-08-02T15:55:13.399Z,24.00
2022-08-02T15:57:40.544Z,23.90
2022-08-02T16:00:15.787Z,23.80
2022-08-02T16:02:47.724Z,23.80
2022-08-02T16:05:18.034Z,24.00
2022-08-02T16:07:46.154Z,24.10
2022-08-02T16:10:14.600Z,24.00
2022-08-02T16:12:41.853Z,23.90
2022-08-02T16:15:09.299Z,23.80
2022-08-02T16:17:49.003Z,23.60
2022-08-02T16:20:21.952Z,23.40
2022-08-02T16:22:49.229Z,23.20
2022-08-02T16:25:17.146Z,23.10
2022-08-02T16:27:57.476Z,23.10
2022-08-02T16:30:32.607Z,23.10
2022-08-02T16:32:59.726Z,23.20
2022-08-02T16:35:28.366Z,23.20
2022-08-02T16:37:55.718Z,23.20
2022-08-02T16:40:23.386Z,23.20
2022-08-02T16:42:51.209Z,23.10
2022-08-02T16:45:22.525Z,23.10
2022-08-02T16:47:57.326Z,23.00
2022-08-02T16:50:28.491Z,23.00
2022-08-02T16:52:59.502Z,22.80
2022-08-02T16:55:29.100Z,22.60
2022-08-02T16:57:59.367Z,22.50
2022-08-02T17:00:27.148Z,22.20
2022-08-02T17:02:54.294Z,22.10
2022-08-02T17:05:29.767Z,21.90
2022-08-02T17:08:07.384Z,21.80
2022-08-02T17:10:44.089Z,21.70
2022-08-02T17:13:12.194Z,21.70
2022-08-02T17:16:15.634Z,21.60
2022-08-02T17:18:29.370Z,21.40
2022-08-02T17:20:56.631Z,21.30
2022-08-02T17:24:04.291Z,21.30
2022-08-02T17:26:13.097Z,21.20
2022-08-02T17:28:50.840Z,21.20
2022-08-02T17:31:29.745Z,21.10
2022-08-02T17:33:57.262Z,21.00
2022-08-02T17:36:25.982Z,21.10
2022-08-02T17:38:53.075Z,21.00
2022-08-02T17:41:20.209Z,21.00
2022-08-02T17:44:08.637Z,21.00
2022-08-02T17:46:37.167Z,21.00
2022-08-02T17:49:17.034Z,20.90
2022-08-02T17:52:49.444Z,20.90
2022-08-02T17:54:32.641Z,20.90
2022-08-02T17:57:00.059Z,20.80
2022-08-02T17:59:31.267Z,20.80
2022-08-02T18:02:11.160Z,20.70
2022-08-02T18:04:38.830Z,20.60
2022-08-02T18:07:09.814Z,20.60
2022-08-02T18:09:43.555Z,20.50
2022-08-02T18:12:14.996Z,20.50
2022-08-02T18:14:46.183Z,20.40
2022-08-02T18:17:17.031Z,20.40
2022-08-02T18:19:56.386Z,20.30
2022-08-02T18:22:30.977Z,20.20
2022-08-02T18:24:58.130Z,20.10
2022-08-02T18:27:25.295Z,20.10
2022-08-02T18:30:00.046Z,20.00
2022-08-02T18:33:54.555Z,19.90
2022-08-02T18:35:19.898Z,19.90
2022-08-02T18:37:57.437Z,19.90
2022-08-02T18:40:31.375Z,19.80
2022-08-02T18:42:58.521Z,19.80
2022-08-02T18:45:25.630Z,19.80
2022-08-02T18:48:12.749Z,19.70
2022-08-02T18:50:46.932Z,19.70
2022-08-02T18:53:14.386Z,19.70
2022-08-02T18:55:59.955Z,19.70
2022-08-02T18:58:29.236Z,19.70
2022-08-02T19:00:59.177Z,19.70
2022-08-02T19:03:26.733Z,19.70
2022-08-02T19:05:54.374Z,19.60
2022-08-02T19:08:25.674Z,19.60
2022-08-02T19:10:56.222Z,19.50
2022-08-02T19:13:42.932Z,19.50
2022-08-02T19:16:10.129Z,19.40
2022-08-02T19:18:37.821Z,19.40
2022-08-02T19:21:07.377Z,19.40
2022-08-02T19:23:35.779Z,19.30
2022-08-02T19:26:03.997Z,19.30
2022-08-02T19:28:31.209Z,19.30
2022-08-02T19:30:58.560Z,19.30
2022-08-02T19:34:05.998Z,19.30
2022-08-02T19:36:13.105Z,19.20
2022-08-02T19:38:45.514Z,19.20
2022-08-02T19:41:16.355Z,19.20
2022-08-02T19:44:24.509Z,19.10
2022-08-02T19:46:31.269Z,19.10
2022-08-02T19:49:01.043Z,19.10
2022-08-02T19:51:55.169Z,19.10
2022-08-02T19:54:35.719Z,19.00
2022-08-02T19:57:13.733Z,19.00
2022-08-02T19:59:46.615Z,19.10
2022-08-02T20:02:15.876Z,19.10
2022-08-02T20:04:49.768Z,19.00
2022-08-02T20:07:50.050Z,19.00
2022-08-02T20:10:06.088Z,19.00
2022-08-02T20:12:39.794Z,18.90
2022-08-02T20:15:15.129Z,18.90
2022-08-02T20:17:47.443Z,18.90
2022-08-02T20:20:15.482Z,18.90
2022-08-02T20:23:01.016Z,18.80
2022-08-02T20:25:49.088Z,18.80
2022-08-02T20:28:16.139Z,18.70
2022-08-02T20:30:43.424Z,18.70
2022-08-02T20:33:21.237Z,18.60
2022-08-02T20:35:53.166Z,18.60
2022-08-02T20:38:25.030Z,18.60
2022-08-02T20:40:57.071Z,18.50
2022-08-02T20:43:31.552Z,18.50
2022-08-02T20:46:02.973Z,18.40
2022-08-02T20:48:31.315Z,18.30
2022-08-02T20:53:56.044Z,18.20
2022-08-02T20:56:24.091Z,18.20
2022-08-02T20:58:52.010Z,18.00
2022-08-02T21:01:21.137Z,18.00
2022-08-02T21:03:58.460Z,18.00
2022-08-02T21:06:28.096Z,17.90
2022-08-02T21:08:56.164Z,17.80
2022-08-02T21:11:25.480Z,17.80
2022-08-02T21:14:07.581Z,17.70
2022-08-02T21:16:37.003Z,17.60
2022-08-02T21:19:07.854Z,17.60
2022-08-02T21:21:37.448Z,17.60
2022-08-02T21:24:05.151Z,17.60
2022-08-02T21:26:32.935Z,17.60
2022-08-02T21:29:03.185Z,17.60
2022-08-02T21:31:33.410Z,17.60
2022-08-02T21:34:03.907Z,17.60
2022-08-02T21:36:49.702Z,17.60
2022-08-02T21:39:17.802Z,17.60
2022-08-02T21:41:46.382Z,17.60
2022-08-02T21:44:15.943Z,17.60
2022-08-02T21:46:49.442Z,17.60
2022-08-02T21:49:18.561Z,17.50
2022-08-02T21:51:49.503Z,17.50
2022-08-02T21:54:21.535Z,17.50
2022-08-02T21:56:52.130Z,17.50
2022-08-02T21:59:26.045Z,17.40
2022-08-02T22:01:57.646Z,17.50
2022-08-02T22:04:28.524Z,17.50
2022-08-02T22:06:57.746Z,17.40
2022-08-02T22:09:44.485Z,17.40
2022-08-02T22:12:17.910Z,17.40
2022-08-02T22:14:54.507Z,17.40
2022-08-02T22:17:46.863Z,17.40
2022-08-02T22:20:15.512Z,17.40
2022-08-02T22:22:45.584Z,17.40
2022-08-02T22:25:27.066Z,17.40
2022-08-02T22:28:39.025Z,17.40
2022-08-02T22:30:52.615Z,17.40
2022-08-02T22:33:40.655Z,17.40
2022-08-02T22:36:09.202Z,17.40
2022-08-02T22:38:38.963Z,17.30
2022-08-02T22:41:15.813Z,17.30
2022-08-02T22:43:43.749Z,17.30
2022-08-02T22:46:15.508Z,17.30
2022-08-02T22:48:44.672Z,17.40
2022-08-02T22:51:14.099Z,17.40
2022-08-02T22:53:43.247Z,17.40
2022-08-02T22:56:10.861Z,17.40
2022-08-02T22:59:07.950Z,18.20
2022-08-02T23:01:25.661Z,17.40
2022-08-02T23:03:52.866Z,17.40
2022-08-02T23:06:22.706Z,17.30
2022-08-02T23:08:50.486Z,17.40
2022-08-02T23:11:17.592Z,17.40
2022-08-02T23:13:45.117Z,17.40
2022-08-02T23:16:30.546Z,17.40
2022-08-02T23:19:16.027Z,17.40
2022-08-02T23:22:01.947Z,17.30
2022-08-02T23:24:33.634Z,17.30
2022-08-02T23:27:01.163Z,17.20
2022-08-02T23:29:28.144Z,17.10
2022-08-02T23:31:55.361Z,17.00
2022-08-02T23:34:22.500Z,17.00
2022-08-02T23:36:49.636Z,16.90
2022-08-02T23:39:16.661Z,16.90
2022-08-02T23:41:43.815Z,16.80
2022-08-02T23:44:14.032Z,16.80
2022-08-02T23:46:46.712Z,16.70
2022-08-02T23:49:15.741Z,16.60
2022-08-02T23:51:43.453Z,16.60
2022-08-02T23:54:11.585Z,16.60
2022-08-02T23:56:39.722Z,16.50
2022-08-02T23:59:10.252Z,16.50
